createdAt,value
2022-08-02T00:00:35.013Z,101419.50
2022-08-02T00:03:02.041Z,101423.19
2022-08-02T00:05:28.976Z,101419.69
2022-08-02T00:07:55.948Z,101426.34
2022-08-02T00:10:22.902Z,101418.72
2022-08-02T00:12:49.904Z,101419.50
2022-08-02T00:15:16.813Z,101413.97
2022-08-02T00:17:46.377Z,101411.41
2022-08-02T00:20:15.765Z,101411.19
2022-08-02T00:22:42.664Z,101405.25
2022-08-02T00:25:09.789Z,101404.63
2022-08-02T00:27:36.699Z,101416.47
2022-08-02T00:30:04.357Z,101406.38
2022-08-02T00:32:31.404Z,101409.22
2022-08-02T00:34:58.609Z,101420.66
2022-08-02T00:37:25.486Z,101421.66
2022-08-02T00:39:52.487Z,101415.63
2022-08-02T00:42:19.397Z,101416.72
2022-08-02T00:44:46.356Z,101424.72
2022-08-02T00:47:19.187Z,101418.47
2022-08-02T00:49:46.998Z,101422.91
2022-08-02T00:52:14.218Z,101424.13
2022-08-02T00:54:41.406Z,101414.75
2022-08-02T00:57:08.288Z,101429.06
2022-08-02T00:59:35.224Z,101423.88
2022-08-02T01:02:02.214Z,101423.16
2022-08-02T01:04:31.546Z,101423.25
2022-08-02T01:07:01.158Z,101422.63
2022-08-02T01:09:28.562Z,101408.72
2022-08-02T01:11:55.621Z,101402.47
2022-08-02T01:14:24.586Z,101400.13
2022-08-02T01:17:00.433Z,101417.09
2022-08-02T01:19:37.905Z,101414.78
2022-08-02T01:22:58.549Z,101416.09
2022-08-02T01:25:47.373Z,101418.19
2022-08-02T01:28:38.700Z,101424.22
2022-08-02T01:31:19.185Z,101420.50
2022-08-02T01:34:11.174Z,101430.44
2022-08-02T01:36:50.163Z,101427.88
2022-08-02T01:39:27.349Z,101419.13
2022-08-02T01:42:01.525Z,101418.38
2022-08-02T01:44:34.808Z,101419.34
2022-08-02T01:47:08.253Z,101417.50
2022-08-02T01:49:38.100Z,101417.34
2022-08-02T01:52:23.126Z,101416.59
2022-08-02T01:55:09.843Z,101432.59
2022-08-02T01:57:43.250Z,101416.72
2022-08-02T02:00:11.906Z,101415.09
2022-08-02T02:02:43.933Z,101424.22
2022-08-02T02:05:16.994Z,101420.84
2022-08-02T02:07:46.148Z,101420.13
2022-08-02T02:10:17.665Z,101413.97
2022-08-02T02:12:49.782Z,101400.06
2022-08-02T02:15:16.715Z,101405.38
2022-08-02T02:18:11.912Z,101395.75
2022-08-02T02:20:34.965Z,101380.00
2022-08-02T02:23:03.132Z,101389.13
2022-08-02T02:25:35.545Z,101363.88
2022-08-02T02:28:11.288Z,101380.75
2022-08-02T02:30:42.489Z,101385.63
2022-08-02T02:33:10.406Z,101381.09
2022-08-02T02:35:38.440Z,101377.13
2022-08-02T02:38:10.195Z,101379.81
2022-08-02T02:40:38.138Z,101368.50
2022-08-02T02:43:06.491Z,101376.75
2022-08-02T02:45:35.235Z,101375.78
2022-08-02T02:48:04.066Z,101365.19
2022-08-02T02:50:31.618Z,101378.56
2022-08-02T02:53:00.271Z,101376.22
2022-08-02T02:55:28.627Z,101358.06
2022-08-02T02:57:56.727Z,101369.50
2022-08-02T03:00:44.321Z,101356.94
2022-08-02T03:03:13.180Z,101350.44
2022-08-02T03:05:40.132Z,101361.16
2022-08-02T03:08:07.211Z,101360.41
2022-08-02T03:10:34.847Z,101356.31
2022-08-02T03:13:01.838Z,101367.03
2022-08-02T03:15:29.318Z,101356.44
2022-08-02T03:17:56.345Z,101353.97
2022-08-02T03:20:23.291Z,101361.56
2022-08-02T03:22:50.514Z,101366.97
2022-08-02T03:25:18.800Z,101378.53
2022-08-02T03:27:46.590Z,101383.19
2022-08-02T03:30:14.702Z,101359.22
2022-08-02T03:32:46.218Z,101371.88
2022-08-02T03:35:22.957Z,101374.94
2022-08-02T03:37:52.814Z,101370.50
2022-08-02T03:40:19.801Z,101363.84
2022-08-02T03:42:47.595Z,101369.88
2022-08-02T03:45:15.123Z,101355.31
2022-08-02T03:47:44.066Z,101359.22
2022-08-02T03:50:14.463Z,101341.63
2022-08-02T03:52:44.752Z,101348.63
2022-08-02T03:55:13.054Z,101343.03
2022-08-02T03:57:43.853Z,101351.38
2022-08-02T04:00:13.629Z,101322.06
2022-08-02T04:02:40.884Z,101340.38
2022-08-02T04:05:08.710Z,101352.19
2022-08-02T04:08:33.250Z,101364.78
2022-08-02T04:10:22.598Z,101358.25
2022-08-02T04:12:49.555Z,101354.16
2022-08-02T04:15:16.831Z,101370.03
2022-08-02T04:17:51.362Z,101373.09
2022-08-02T04:20:21.997Z,101364.16
2022-08-02T04:23:10.226Z,101360.50
2022-08-02T04:25:40.449Z,101351.75
2022-08-02T04:28:16.885Z,101363.81
2022-08-02T04:30:46.615Z,101361.34
2022-08-02T04:33:14.565Z,101359.41
2022-08-02T04:35:41.858Z,101361.25
2022-08-02T04:38:10.671Z,101368.00
2022-08-02T04:40:38.304Z,101367.16
2022-08-02T04:43:05.411Z,101381.09
2022-08-02T04:45:33.408Z,101362.28
2022-08-02T04:48:07.420Z,101375.22
2022-08-02T04:50:35.368Z,101349.44
2022-08-02T04:53:02.388Z,101366.88
2022-08-02T04:55:29.950Z,101357.69
2022-08-02T04:57:58.645Z,101376.94
2022-08-02T05:00:27.986Z,101367.84
2022-08-02T05:02:59.913Z,101375.28
2022-08-02T05:05:27.510Z,101360.03
2022-08-02T05:07:55.064Z,101363.03
2022-08-02T05:10:22.692Z,101361.56
2022-08-02T05:12:50.079Z,101368.50
2022-08-02T05:15:18.423Z,101361.56
2022-08-02T05:17:48.682Z,101371.81
2022-08-02T05:20:19.224Z,101370.47
2022-08-02T05:22:47.062Z,101376.41
2022-08-02T05:25:15.087Z,101371.50
2022-08-02T05:27:42.263Z,101367.00
2022-08-02T05:30:10.778Z,101367.38
2022-08-02T05:32:49.537Z,101361.47
2022-08-02T05:35:25.029Z,101365.03
2022-08-02T05:37:52.623Z,101359.25
2022-08-02T05:40:25.528Z,101366.59
2022-08-02T05:42:54.336Z,101359.41
2022-08-02T05:45:21.954Z,101354.72
2022-08-02T05:47:49.048Z,101352.16
2022-08-02T05:50:16.120Z,101343.41
2022-08-02T05:52:49.020Z,101362.50
2022-08-02T05:55:28.447Z,101364.16
2022-08-02T05:58:14.317Z,101359.97
2022-08-02T06:00:42.355Z,101351.03
2022-08-02T06:03:39.509Z,101363.44
2022-08-02T06:06:13.981Z,101362.41
2022-08-02T06:08:51.030Z,101362.84
2022-08-02T06:12:02.091Z,101359.50
2022-08-02T06:14:33.383Z,101361.53
2022-08-02T06:17:05.063Z,101383.19
2022-08-02T06:19:36.634Z,101390.38
2022-08-02T06:22:31.973Z,101381.66
2022-08-02T06:25:05.087Z,101366.66
2022-08-02T06:27:33.257Z,101348.03
2022-08-02T06:30:02.022Z,101341.19
2022-08-02T06:32:28.928Z,101335.50
2022-08-02T06:34:55.978Z,101340.78
2022-08-02T06:37:58.367Z,101351.75
2022-08-02T06:40:49.013Z,101339.25
2022-08-02T06:43:52.717Z,101322.41
2022-08-02T06:46:38.088Z,101330.41
2022-08-02T06:49:07.157Z,101311.88
2022-08-02T06:51:34.653Z,101315.69
2022-08-02T06:54:01.710Z,101323.53
2022-08-02T06:56:28.620Z,101326.59
2022-08-02T06:58:55.809Z,101316.97
2022-08-02T07:01:23.090Z,101320.50
2022-08-02T07:03:50.311Z,101322.44
2022-08-02T07:06:17.232Z,101295.47
2022-08-02T07:08:59.460Z,101311.41
2022-08-02T07:11:31.510Z,101313.66
2022-08-02T07:13:58.703Z,101318.59
2022-08-02T07:16:25.748Z,101327.44
2022-08-02T07:18:52.862Z,101318.81
2022-08-02T07:21:57.021Z,101333.22
2022-08-02T07:24:06.910Z,101343.41
2022-08-02T07:29:26.187Z,101337.75
2022-08-02T07:32:23.998Z,101340.56
2022-08-02T07:34:53.019Z,101329.50
2022-08-02T07:37:52.791Z,101321.81
2022-08-02T07:40:19.791Z,101314.69
2022-08-02T07:42:57.991Z,101316.88
2022-08-02T07:45:27.491Z,101317.25
2022-08-02T07:47:55.003Z,101276.19
2022-08-02T07:50:25.727Z,101296.88
2022-08-02T07:52:53.656Z,101291.09
2022-08-02T07:55:39.339Z,101303.28
2022-08-02T07:58:11.026Z,101288.16
2022-08-02T08:00:44.272Z,101287.09
2022-08-02T08:03:11.780Z,101281.09
2022-08-02T08:05:38.831Z,101288.06
2022-08-02T08:08:06.097Z,101283.25
2022-08-02T08:10:36.083Z,101289.75
2022-08-02T08:13:03.127Z,101281.28
2022-08-02T08:15:30.105Z,101277.31
2022-08-02T08:17:57.071Z,101285.66
2022-08-02T08:20:30.487Z,101270.22
2022-08-02T08:22:57.505Z,101272.63
2022-08-02T08:25:24.461Z,101272.44
2022-08-02T08:27:54.283Z,101267.72
2022-08-02T08:30:37.665Z,101280.88
2022-08-02T08:33:21.009Z,101257.94
2022-08-02T08:35:48.946Z,101257.63
2022-08-02T08:38:16.776Z,101263.00
2022-08-02T08:40:49.579Z,101265.25
2022-08-02T08:43:17.089Z,101251.38
2022-08-02T08:45:55.928Z,101255.97
2022-08-02T08:48:31.170Z,101258.19
2022-08-02T08:51:11.935Z,101259.00
2022-08-02T08:53:43.584Z,101264.34
2022-08-02T08:56:15.915Z,101269.38
2022-08-02T08:58:47.891Z,101265.47
2022-08-02T09:01:17.160Z,101263.09
2022-08-02T09:03:44.886Z,101269.00
2022-08-02T09:06:18.567Z,101260.75
2022-08-02T09:08:46.542Z,101261.16
2022-08-02T09:11:19.027Z,101252.72
2022-08-02T09:13:56.400Z,101239.13
2022-08-02T09:17:22.080Z,101238.16
2022-08-02T09:20:10.710Z,101249.19
2022-08-02T09:22:46.933Z,101250.50
2022-08-02T09:25:16.570Z,101245.00
2022-08-02T09:27:43.504Z,101230.66
2022-08-02T09:30:14.258Z,101232.97
2022-08-02T09:32:54.007Z,101214.81
2022-08-02T09:36:06.664Z,101236.59
2022-08-02T09:38:33.179Z,101243.47
2022-08-02T09:41:00.766Z,101238.00
2022-08-02T09:44:04.763Z,101245.88
2022-08-02T09:46:38.061Z,101233.19
2022-08-02T09:49:14.784Z,101238.88
2022-08-02T09:51:47.634Z,101239.75
2022-08-02T09:54:28.606Z,101244.38
2022-08-02T09:56:58.866Z,101237.50
2022-08-02T09:59:27.039Z,101224.47
2022-08-02T10:02:01.883Z,101221.25
2022-08-02T10:04:34.409Z,101228.31
2022-08-02T10:07:20.055Z,101211.50
2022-08-02T10:09:50.052Z,101207.78
2022-08-02T10:12:17.330Z,101229.47
2022-08-02T10:14:45.705Z,101239.94
2022-08-02T10:17:12.902Z,101211.53
2022-08-02T10:20:03.381Z,101219.22
2022-08-02T10:22:27.606Z,101217.75
2022-08-02T10:24:55.042Z,101226.69
2022-08-02T10:27:26.543Z,101226.06
2022-08-02T10:29:57.835Z,101204.78
2022-08-02T10:32:34.782Z,101219.19
2022-08-02T10:35:19.893Z,101208.97
2022-08-02T10:38:01.692Z,101213.44
2022-08-02T10:40:45.499Z,101217.50
2022-08-02T10:43:13.253Z,101202.81
2022-08-02T10:45:40.331Z,101190.06
2022-08-02T10:48:12.255Z,101208.78
2022-08-02T10:51:04.307Z,101202.09
2022-08-02T10:53:33.171Z,101196.84
2022-08-02T10:56:09.245Z,101211.06
2022-08-02T10:58:36.571Z,101195.75
2022-08-02T11:01:08.350Z,101177.16
2022-08-02T11:03:40.909Z,101188.09
2022-08-02T11:06:25.032Z,101198.50
2022-08-02T11:09:33.993Z,101174.97
2022-08-02T11:12:16.542Z,101177.88
2022-08-02T11:14:46.952Z,101181.38
2022-08-02T11:17:18.916Z,101170.56
2022-08-02T11:20:17.490Z,101193.03
2022-08-02T11:22:46.184Z,101184.91
2022-08-02T11:25:22.177Z,101191.28
2022-08-02T11:27:53.130Z,101185.75
2022-08-02T11:30:26.429Z,101196.00
2022-08-02T11:32:59.156Z,101181.44
2022-08-02T11:35:39.385Z,101187.84
2022-08-02T11:38:18.920Z,101163.47
2022-08-02T11:40:47.347Z,101172.31
2022-08-02T11:43:22.465Z,101167.63
2022-08-02T11:45:52.554Z,101157.00
2022-08-02T11:48:35.514Z,101174.75
2022-08-02T11:51:12.599Z,101158.88
2022-08-02T11:53:58.248Z,101153.44
2022-08-02T11:56:32.530Z,101146.44
2022-08-02T11:59:09.099Z,101146.72
2022-08-02T12:01:45.414Z,101170.44
2022-08-02T12:04:19.444Z,101145.63
2022-08-02T12:06:59.139Z,101165.44
2022-08-02T12:09:28.987Z,101156.56
2022-08-02T12:11:57.046Z,101166.34
2022-08-02T12:14:27.329Z,101160.16
2022-08-02T12:17:13.397Z,101158.03
2022-08-02T12:19:44.943Z,101133.56
2022-08-02T12:22:27.302Z,101132.34
2022-08-02T12:24:57.204Z,101125.63
2022-08-02T12:27:43.466Z,101139.50
2022-08-02T12:30:13.041Z,101132.25
2022-08-02T12:32:40.861Z,101135.84
2022-08-02T12:35:13.224Z,101131.47
2022-08-02T12:37:44.057Z,101127.41
2022-08-02T12:40:31.827Z,101120.75
2022-08-02T12:43:05.372Z,101118.44
2022-08-02T12:45:49.815Z,101099.16
2022-08-02T12:49:15.847Z,101100.47
2022-08-02T12:51:50.906Z,101096.66
2022-08-02T12:54:40.069Z,101108.09
2022-08-02T12:57:12.545Z,101111.13
2022-08-02T12:59:42.158Z,101111.13
2022-08-02T13:02:12.583Z,101116.16
2022-08-02T13:04:40.659Z,101111.06
2022-08-02T13:07:09.069Z,101107.91
2022-08-02T13:09:38.698Z,101098.78
2022-08-02T13:12:07.308Z,101116.97
2022-08-02T13:14:40.381Z,101098.56
2022-08-02T13:17:10.486Z,101106.72
2022-08-02T13:19:38.516Z,101109.03
2022-08-02T13:22:08.359Z,101101.22
2022-08-02T13:24:55.601Z,101099.72
2022-08-02T13:27:24.476Z,101106.38
2022-08-02T13:29:52.585Z,101089.69
2022-08-02T13:32:20.176Z,101069.78
2022-08-02T13:34:47.406Z,101086.06
2022-08-02T13:37:14.992Z,101097.94
2022-08-02T13:39:41.910Z,101090.50
2022-08-02T13:42:16.934Z,101081.69
2022-08-02T13:44:44.516Z,101080.16
2022-08-02T13:47:11.502Z,101074.75
2022-08-02T13:49:50.566Z,101076.78
2022-08-02T13:52:20.344Z,101079.16
2022-08-02T13:54:47.303Z,101058.22
2022-08-02T13:57:14.299Z,101072.75
2022-08-02T13:59:56.570Z,101057.72
2022-08-02T14:02:28.291Z,101056.00
2022-08-02T14:04:56.269Z,101036.09
2022-08-02T14:07:23.305Z,101056.94
2022-08-02T14:09:50.353Z,101043.28
2022-08-02T14:12:17.631Z,101031.09
2022-08-02T14:14:44.735Z,101050.09
2022-08-02T14:17:11.767Z,101045.59
2022-08-02T14:19:39.856Z,101035.28
2022-08-02T14:22:11.599Z,101031.34
2022-08-02T14:24:40.239Z,101043.34
2022-08-02T14:27:07.773Z,101031.88
2022-08-02T14:29:34.735Z,101025.63
2022-08-02T14:32:02.275Z,101030.09
2022-08-02T14:34:29.489Z,101034.88
2022-08-02T14:36:57.126Z,101041.34
2022-08-02T14:39:24.096Z,101029.28
2022-08-02T14:41:58.475Z,101016.47
2022-08-02T14:44:30.564Z,101025.75
2022-08-02T14:46:57.892Z,101012.50
2022-08-02T14:49:26.801Z,101025.50
2022-08-02T14:51:55.225Z,101033.44
2022-08-02T14:54:28.089Z,101027.59
2022-08-02T14:57:03.231Z,101027.91
2022-08-02T14:59:31.052Z,101029.94
2022-08-02T15:01:59.438Z,101015.44
2022-08-02T15:04:27.008Z,101024.75
2022-08-02T15:06:55.030Z,101016.31
2022-08-02T15:09:22.859Z,100994.28
2022-08-02T15:11:50.324Z,101001.22
2022-08-02T15:14:20.588Z,100988.44
2022-08-02T15:16:57.104Z,100984.56
2022-08-02T15:19:44.977Z,100994.41
2022-08-02T15:22:13.707Z,100992.50
2022-08-02T15:24:44.956Z,100989.94
2022-08-02T15:27:14.108Z,100986.16
2022-08-02T15:29:45.189Z,100992.06
2022-08-02T15:32:13.612Z,100982.94
2022-08-02T15:34:41.111Z,100983.25
2022-08-02T15:37:08.097Z,100985.19
2022-08-02T15:39:35.163Z,100991.84
2022-08-02T15:42:02.149Z,100985.63
2022-08-02T15:44:29.157Z,100992.81
2022-08-02T15:46:57.284Z,101005.09
2022-08-02T15:49:25.949Z,100983.81
2022-08-02T15:51:55.220Z,100997.25
2022-08-02T15:54:22.156Z,100992.78
2022-08-02T15:56:49.560Z,100993.47
2022-08-02T15:59:16.949Z,100999.09
2022-08-02T16:01:47.356Z,100996.41
2022-08-02T16:04:15.678Z,100997.94
2022-08-02T16:06:43.635Z,100990.69
2022-08-02T16:09:10.645Z,100974.09
2022-08-02T16:11:37.788Z,100966.41
2022-08-02T16:14:04.954Z,100965.19
2022-08-02T16:16:34.949Z,100974.03
2022-08-02T16:19:47.940Z,100969.81
2022-08-02T16:21:52.364Z,100980.06
2022-08-02T16:24:19.399Z,100981.66
2022-08-02T16:26:46.449Z,100966.78
2022-08-02T16:29:13.884Z,100984.16
2022-08-02T16:31:47.435Z,100965.38
2022-08-02T16:34:15.018Z,100966.75
2022-08-02T16:36:42.019Z,100975.50
2022-08-02T16:39:08.934Z,100974.44
2022-08-02T16:41:51.091Z,100981.47
2022-08-02T16:44:26.937Z,100977.00
2022-08-02T16:47:01.254Z,100972.50
2022-08-02T16:50:05.091Z,100968.69
2022-08-02T16:52:20.021Z,100968.84
2022-08-02T16:54:49.766Z,100956.25
2022-08-02T16:57:19.801Z,100965.97
2022-08-02T16:59:57.645Z,100963.19
2022-08-02T17:02:27.814Z,100956.56
2022-08-02T17:04:55.678Z,100944.84
2022-08-02T17:08:15.198Z,100946.78
2022-08-02T17:10:12.173Z,100938.16
2022-08-02T17:12:40.105Z,100925.03
2022-08-02T17:16:16.439Z,100938.41
2022-08-02T17:17:55.962Z,100932.00
2022-08-02T17:20:24.420Z,100929.91
2022-08-02T17:23:00.585Z,100933.97
2022-08-02T17:25:29.017Z,100932.13
2022-08-02T17:27:59.136Z,100927.41
2022-08-02T17:30:26.763Z,100937.22
2022-08-02T17:35:52.550Z,100941.00
2022-08-02T17:38:30.329Z,100920.75
2022-08-02T17:40:58.747Z,100925.38
2022-08-02T17:43:29.546Z,100930.91
2022-08-02T17:45:59.778Z,100939.47
2022-08-02T17:48:50.100Z,100911.28
2022-08-02T17:52:15.643Z,100929.69
2022-08-02T17:54:07.190Z,100934.13
2022-08-02T17:56:42.595Z,100928.97
2022-08-02T17:59:31.249Z,100911.53
2022-08-02T18:02:11.092Z,100928.75
2022-08-02T18:04:39.074Z,100917.97
2022-08-02T18:07:09.741Z,100932.97
2022-08-02T18:09:43.261Z,100934.72
2022-08-02T18:12:18.408Z,100932.41
2022-08-02T18:14:49.288Z,100942.25
2022-08-02T18:17:17.817Z,100941.16
2022-08-02T18:19:57.342Z,100944.63
2022-08-02T18:22:31.103Z,100947.22
2022-08-02T18:25:09.217Z,100954.09
2022-08-02T18:27:38.858Z,100956.72
2022-08-02T18:30:08.847Z,100952.50
2022-08-02T18:33:58.364Z,100953.16
2022-08-02T18:35:26.712Z,100954.72
2022-08-02T18:37:57.367Z,100958.75
2022-08-02T18:40:28.110Z,100953.03
2022-08-02T18:42:57.571Z,100966.25
2022-08-02T18:45:25.517Z,100960.78
2022-08-02T18:48:12.803Z,100949.50
2022-08-02T18:50:46.846Z,100953.78
2022-08-02T18:53:14.329Z,100957.41
2022-08-02T18:56:00.165Z,100959.59
2022-08-02T18:58:29.215Z,100960.66
2022-08-02T19:00:59.157Z,100968.97
2022-08-02T19:03:27.487Z,100966.44
2022-08-02T19:05:54.610Z,100963.72
2022-08-02T19:08:26.168Z,100969.25
2022-08-02T19:10:55.970Z,100962.25
2022-08-02T19:13:23.940Z,100968.88
2022-08-02T19:15:51.113Z,100970.38
2022-08-02T19:18:19.774Z,100965.50
2022-08-02T19:20:59.607Z,100972.28
2022-08-02T19:23:30.042Z,100980.16
2022-08-02T19:25:57.374Z,100983.16
2022-08-02T19:28:26.423Z,100983.19
2022-08-02T19:30:56.414Z,100988.69
2022-08-02T19:33:54.389Z,100978.50
2022-08-02T19:36:11.762Z,100988.72
2022-08-02T19:38:43.861Z,100984.00
2022-08-02T19:41:13.715Z,100994.19
2022-08-02T19:44:25.008Z,100989.94
2022-08-02T19:46:27.953Z,100990.53
2022-08-02T19:48:55.145Z,100990.56
2022-08-02T19:51:54.558Z,100992.00
2022-08-02T19:54:10.924Z,100989.22
2022-08-02T19:56:40.387Z,101002.41
2022-08-02T19:59:12.909Z,100996.25
2022-08-02T20:01:46.423Z,101000.28
2022-08-02T20:04:23.245Z,101006.44
2022-08-02T20:06:51.079Z,100996.41
2022-08-02T20:09:21.182Z,101000.00
2022-08-02T20:11:54.528Z,100993.81
2022-08-02T20:14:26.867Z,101004.19
2022-08-02T20:17:11.704Z,101001.56
2022-08-02T20:19:40.258Z,100984.38
2022-08-02T20:22:07.839Z,100994.31
2022-08-02T20:24:35.096Z,100990.06
2022-08-02T20:27:03.008Z,100992.16
2022-08-02T20:29:43.197Z,100994.72
2022-08-02T20:32:12.446Z,100969.56
2022-08-02T20:34:39.734Z,101001.41
2022-08-02T20:38:00.218Z,101001.22
2022-08-02T20:40:02.781Z,100990.75
2022-08-02T20:42:29.788Z,100996.88
2022-08-02T20:44:57.412Z,100997.69
2022-08-02T20:47:28.461Z,100998.66
2022-08-02T20:50:30.594Z,101004.97
2022-08-02T20:53:04.166Z,101003.03
2022-08-02T20:55:32.045Z,100975.59
2022-08-02T20:58:01.865Z,100998.56
2022-08-02T21:00:30.339Z,101007.22
2022-08-02T21:03:01.146Z,100998.97
2022-08-02T21:05:43.992Z,100960.47
2022-08-02T21:08:20.472Z,100998.53
2022-08-02T21:10:52.231Z,100989.16
2022-08-02T21:13:23.071Z,100998.50
2022-08-02T21:15:52.124Z,100992.50
2022-08-02T21:18:30.248Z,100992.66
2022-08-02T21:21:09.288Z,100999.88
2022-08-02T21:23:37.661Z,100991.97
2022-08-02T21:26:06.753Z,100989.59
2022-08-02T21:28:44.050Z,100984.22
2022-08-02T21:31:15.953Z,100989.28
2022-08-02T21:33:47.178Z,100982.47
2022-08-02T21:36:31.709Z,100995.66
2022-08-02T21:39:04.703Z,100980.69
2022-08-02T21:41:39.902Z,100977.25
2022-08-02T21:44:21.739Z,100986.13
2022-08-02T21:46:55.038Z,100989.06
2022-08-02T21:49:41.115Z,100985.84
2022-08-02T21:52:11.688Z,100981.97
2022-08-02T21:57:25.698Z,100990.25
2022-08-02T22:00:02.062Z,100995.13
2022-08-02T22:02:35.853Z,100998.25
2022-08-02T22:05:05.491Z,100988.88
2022-08-02T22:07:41.690Z,100999.63
2022-08-02T22:10:12.874Z,100994.41
2022-08-02T22:12:39.917Z,101002.53
2022-08-02T22:15:11.551Z,100995.78
2022-08-02T22:17:51.235Z,101001.22
2022-08-02T22:20:21.298Z,101011.91
2022-08-02T22:22:52.221Z,101012.59
2022-08-02T22:25:21.754Z,101008.53
2022-08-02T22:28:11.761Z,101013.25
2022-08-02T22:31:07.590Z,101010.03
2022-08-02T22:34:00.811Z,101009.50
2022-08-02T22:36:43.528Z,101005.88
2022-08-02T22:39:18.671Z,101014.13
2022-08-02T22:42:00.904Z,101015.34
2022-08-02T22:44:35.656Z,101018.19
2022-08-02T22:47:07.542Z,100988.03
2022-08-02T22:49:53.200Z,101021.00
2022-08-02T22:52:24.024Z,101017.50
2022-08-02T22:54:51.182Z,101012.16
2022-08-02T22:57:30.002Z,101007.63
2022-08-02T22:58:39.111Z,100937.63
2022-08-02T22:59:03.802Z,100989.19
2022-08-02T22:59:59.579Z,101019.44
2022-08-02T23:02:27.237Z,101017.25
2022-08-02T23:04:55.080Z,101018.03
2022-08-02T23:07:22.033Z,101014.13
2022-08-02T23:09:49.073Z,101016.19
2022-08-02T23:12:19.267Z,101009.38
2022-08-02T23:14:52.221Z,101015.22
2022-08-02T23:17:39.767Z,101015.78
2022-08-02T23:20:09.726Z,101015.00
2022-08-02T23:22:37.511Z,101015.19
2022-08-02T23:25:06.240Z,101013.19
2022-08-02T23:27:33.755Z,100968.97
2022-08-02T23:30:01.985Z,101002.09
2022-08-02T23:32:29.213Z,101007.78
2022-08-02T23:34:57.257Z,101005.91
2022-08-02T23:37:24.825Z,101009.69
2022-08-02T23:39:51.947Z,101012.78
2022-08-02T23:42:19.217Z,101015.25
2022-08-02T23:44:46.373Z,101012.84
2022-08-02T23:47:13.300Z,101011.53
2022-08-02T23:49:40.535Z,101009.97
2022-08-02T23:52:07.575Z,101007.63
2022-08-02T23:54:34.616Z,101004.00
2022-08-02T23:57:20.126Z,100999.94
2022-08-02T23:59:49.892Z,100994.50
